createdAt,value
2022-08-19T00:01:37.941Z,5.10
2022-08-19T00:04:07.470Z,6.47
2022-08-19T00:06:36.486Z,4.82
2022-08-19T00:09:06.723Z,5.45
2022-08-19T00:11:35.602Z,5.93
2022-08-19T00:14:02.487Z,6.15
2022-08-19T00:16:29.322Z,6.05
2022-08-19T00:18:56.662Z,8.18
2022-08-19T00:21:25.084Z,6.30
2022-08-19T00:23:51.512Z,4.90
2022-08-19T00:26:18.126Z,9.20
2022-08-19T00:28:44.618Z,7.95
2022-08-19T00:31:11.234Z,8.27
2022-08-19T00:33:37.784Z,7.57
2022-08-19T00:36:07.370Z,7.75
2022-08-19T00:38:37.805Z,7.22
2022-08-19T00:41:06.342Z,8.07
2022-08-19T00:43:32.866Z,6.85
2022-08-19T00:45:59.357Z,5.90
2022-08-19T00:48:25.993Z,7.47
2022-08-19T00:50:54.151Z,8.38
2022-08-19T00:53:23.757Z,7.00
2022-08-19T00:55:53.551Z,7.15
2022-08-19T00:58:22.928Z,7.32
2022-08-19T01:00:49.750Z,9.32
2022-08-19T01:03:19.272Z,7.20
2022-08-19T01:05:48.193Z,6.10
2022-08-19T01:08:16.802Z,6.45
2022-08-19T01:10:47.864Z,7.40
2022-08-19T01:13:21.000Z,8.43
2022-08-19T01:15:52.426Z,6.63
2022-08-19T01:18:20.482Z,8.43
2022-08-19T01:20:47.687Z,6.45
2022-08-19T01:23:15.726Z,6.50
2022-08-19T01:25:50.902Z,7.25
2022-08-19T01:28:32.203Z,7.32
2022-08-19T01:31:01.270Z,7.10
2022-08-19T01:33:34.609Z,7.40
2022-08-19T01:36:09.603Z,8.13
2022-08-19T01:38:44.396Z,6.70
2022-08-19T01:41:12.494Z,11.00
2022-08-19T01:43:39.093Z,6.97
2022-08-19T01:46:25.792Z,10.38
2022-08-19T01:48:52.247Z,8.35
2022-08-19T01:51:18.767Z,7.88
2022-08-19T01:53:49.221Z,8.43
2022-08-19T01:56:15.666Z,9.73
2022-08-19T01:58:48.651Z,8.82
2022-08-19T02:01:15.232Z,9.20
2022-08-19T02:03:41.733Z,7.75
2022-08-19T02:06:08.441Z,7.38
2022-08-19T02:08:38.463Z,10.02
2022-08-19T02:11:06.929Z,17.17
2022-08-19T02:13:34.569Z,8.30
2022-08-19T02:16:01.078Z,8.93
2022-08-19T02:18:30.825Z,8.95
2022-08-19T02:20:57.433Z,10.20
2022-08-19T02:23:24.010Z,7.88
2022-08-19T02:25:52.275Z,9.23
2022-08-19T02:28:19.254Z,8.77
2022-08-19T02:30:47.425Z,10.90
2022-08-19T02:33:14.013Z,7.60
2022-08-19T02:35:47.789Z,8.63
2022-08-19T02:38:26.863Z,7.60
2022-08-19T02:40:57.342Z,8.90
2022-08-19T02:43:27.319Z,8.82
2022-08-19T02:45:55.138Z,10.77
2022-08-19T02:48:23.586Z,9.35
2022-08-19T02:50:56.390Z,9.45
2022-08-19T02:53:25.402Z,9.88
2022-08-19T02:55:52.404Z,8.63
2022-08-19T02:58:20.720Z,8.52
2022-08-19T03:00:50.604Z,9.70
2022-08-19T03:03:17.819Z,9.52
2022-08-19T03:05:48.187Z,10.10
2022-08-19T03:08:22.497Z,10.73
2022-08-19T03:10:49.160Z,9.93
2022-08-19T03:13:18.362Z,7.88
2022-08-19T03:15:47.866Z,12.02
2022-08-19T03:18:14.805Z,10.25
2022-08-19T03:20:59.948Z,9.30
2022-08-19T03:23:26.706Z,8.30
2022-08-19T03:25:58.398Z,8.90
2022-08-19T03:28:42.715Z,10.43
2022-08-19T03:31:45.589Z,8.30
2022-08-19T03:34:05.427Z,7.93
2022-08-19T03:36:34.659Z,8.07
2022-08-19T03:39:02.318Z,11.13
2022-08-19T03:41:44.316Z,9.20
2022-08-19T03:44:16.777Z,10.82
2022-08-19T03:46:46.146Z,13.02
2022-08-19T03:49:14.361Z,9.95
2022-08-19T03:51:43.192Z,10.52
2022-08-19T03:54:12.631Z,11.02
2022-08-19T03:56:40.708Z,10.52
2022-08-19T03:59:09.772Z,11.25
2022-08-19T04:01:36.403Z,11.55
2022-08-19T04:04:04.746Z,11.73
2022-08-19T04:06:34.925Z,11.25
2022-08-19T04:09:04.542Z,11.48
2022-08-19T04:11:43.706Z,11.98
2022-08-19T04:14:13.508Z,12.27
2022-08-19T04:16:40.000Z,13.13
2022-08-19T04:19:07.707Z,12.52
2022-08-19T04:21:35.047Z,14.35
2022-08-19T04:24:02.049Z,9.60
2022-08-19T04:26:35.603Z,9.82
2022-08-19T04:29:12.373Z,13.38
2022-08-19T04:31:41.054Z,11.02
2022-08-19T04:34:09.379Z,11.63
2022-08-19T04:36:38.023Z,12.90
2022-08-19T04:39:08.389Z,9.77
2022-08-19T04:41:54.425Z,11.10
2022-08-19T04:44:22.321Z,14.85
2022-08-19T04:46:51.957Z,12.02
2022-08-19T04:49:22.727Z,12.10
2022-08-19T04:51:50.928Z,10.90
2022-08-19T04:54:37.247Z,13.45
2022-08-19T04:57:07.541Z,12.00
2022-08-19T04:59:34.572Z,13.57
2022-08-19T05:02:01.224Z,10.05
2022-08-19T05:04:29.719Z,11.32
2022-08-19T05:06:59.457Z,12.70
2022-08-19T05:09:56.579Z,11.38
2022-08-19T05:12:16.580Z,12.55
2022-08-19T05:14:43.232Z,12.35
2022-08-19T05:17:26.557Z,14.15
2022-08-19T05:20:12.834Z,12.52
2022-08-19T05:22:39.737Z,14.10
2022-08-19T05:25:13.004Z,11.60
2022-08-19T05:27:40.269Z,12.02
2022-08-19T05:30:07.552Z,11.40
2022-08-19T05:32:34.086Z,13.40
2022-08-19T05:35:00.599Z,13.90
2022-08-19T05:37:28.414Z,15.32
2022-08-19T05:39:55.737Z,12.52
2022-08-19T05:42:23.914Z,11.38
2022-08-19T05:44:51.148Z,11.73
2022-08-19T05:47:19.777Z,12.95
2022-08-19T05:49:46.401Z,12.48
2022-08-19T05:52:16.483Z,12.57
2022-08-19T05:54:51.105Z,13.73
2022-08-19T05:57:21.287Z,11.98
2022-08-19T05:59:49.431Z,13.48
2022-08-19T06:02:20.331Z,11.07
2022-08-19T06:04:46.858Z,14.55
2022-08-19T06:07:13.596Z,13.02
2022-08-19T06:09:41.420Z,12.32
2022-08-19T06:12:10.270Z,13.07
2022-08-19T06:14:41.712Z,15.80
2022-08-19T06:17:09.243Z,17.05
2022-08-19T06:19:40.645Z,14.40
2022-08-19T06:22:08.614Z,13.93
2022-08-19T06:24:36.192Z,12.25
2022-08-19T06:27:04.129Z,15.38
2022-08-19T06:29:31.243Z,12.05
2022-08-19T06:32:00.312Z,13.15
2022-08-19T06:34:29.064Z,11.95
2022-08-19T06:36:57.182Z,16.40
2022-08-19T06:39:29.556Z,14.93
2022-08-19T06:42:11.167Z,12.95
2022-08-19T06:44:42.850Z,11.20
2022-08-19T06:47:14.919Z,12.52
2022-08-19T06:49:50.020Z,10.32
2022-08-19T06:52:17.733Z,13.63
2022-08-19T06:54:55.875Z,10.77
2022-08-19T06:57:24.581Z,12.60
2022-08-19T06:59:51.208Z,14.35
2022-08-19T07:04:44.518Z,12.65
2022-08-19T07:07:21.283Z,12.63
2022-08-19T07:09:51.648Z,11.10
2022-08-19T07:12:30.200Z,7.57
2022-08-19T07:15:00.247Z,9.05
2022-08-19T07:17:28.886Z,9.80
2022-08-19T07:19:56.222Z,10.35
2022-08-19T07:22:26.256Z,10.90
2022-08-19T07:24:53.589Z,9.50
2022-08-19T07:27:24.298Z,12.38
2022-08-19T07:29:55.854Z,9.13
2022-08-19T07:32:26.910Z,9.02
2022-08-19T07:34:57.025Z,8.07
2022-08-19T07:37:32.542Z,8.82
2022-08-19T07:39:59.917Z,7.03
2022-08-19T07:42:26.699Z,7.65
2022-08-19T07:44:53.131Z,7.60
2022-08-19T07:47:50.228Z,7.65
2022-08-19T07:50:10.214Z,7.28
2022-08-19T07:52:39.510Z,7.82
2022-08-19T07:55:08.056Z,9.07
2022-08-19T07:57:54.610Z,8.32
2022-08-19T08:00:23.779Z,6.97
2022-08-19T08:02:51.371Z,9.23
2022-08-19T08:05:38.022Z,8.93
2022-08-19T08:08:44.530Z,6.70
2022-08-19T08:11:19.867Z,6.00
2022-08-19T08:13:46.854Z,6.68
2022-08-19T08:16:31.038Z,9.02
2022-08-19T08:18:58.719Z,8.25
2022-08-19T08:21:25.173Z,11.73
2022-08-19T08:23:55.673Z,6.15
2022-08-19T08:26:23.334Z,6.13
2022-08-19T08:28:50.201Z,7.47
2022-08-19T08:31:16.774Z,5.32
2022-08-19T08:33:43.322Z,5.00
2022-08-19T08:36:10.441Z,10.07
2022-08-19T08:38:41.799Z,6.65
2022-08-19T08:41:35.906Z,5.47
2022-08-19T08:44:05.554Z,8.10
2022-08-19T08:46:39.610Z,5.22
2022-08-19T08:49:43.804Z,7.18
2022-08-19T08:52:32.065Z,4.43
2022-08-19T08:55:04.202Z,3.78
2022-08-19T08:57:54.468Z,4.53
2022-08-19T09:00:26.124Z,5.28
2022-08-19T09:02:52.555Z,4.55
2022-08-19T09:05:26.083Z,5.78
2022-08-19T09:08:09.767Z,5.30
2022-08-19T09:10:55.491Z,5.60
2022-08-19T09:13:23.193Z,3.38
2022-08-19T09:15:57.670Z,3.90
2022-08-19T09:18:24.646Z,4.18
2022-08-19T09:20:51.095Z,3.90
2022-08-19T09:23:17.642Z,4.18
2022-08-19T09:25:44.142Z,4.75
2022-08-19T09:28:22.703Z,6.40
2022-08-19T09:30:53.620Z,3.63
2022-08-19T09:33:29.104Z,5.38
2022-08-19T09:36:31.287Z,3.83
2022-08-19T09:39:20.891Z,6.68
2022-08-19T09:42:16.170Z,22.20
2022-08-19T09:45:10.487Z,4.10
2022-08-19T09:47:40.742Z,3.05
2022-08-19T09:50:09.684Z,3.20
2022-08-19T09:52:38.392Z,2.92
2022-08-19T09:55:10.310Z,2.95
2022-08-19T09:57:37.166Z,3.88
2022-08-19T10:00:06.576Z,2.80
2022-08-19T10:02:33.438Z,7.43
2022-08-19T10:05:26.878Z,2.20
2022-08-19T10:07:53.863Z,2.67
2022-08-19T10:10:24.150Z,3.97
2022-08-19T10:12:51.403Z,2.72
2022-08-19T10:15:29.060Z,5.13
2022-08-19T10:17:56.319Z,3.88
2022-08-19T10:20:23.719Z,2.47
2022-08-19T10:22:51.893Z,3.30
2022-08-19T10:25:19.953Z,2.78
2022-08-19T10:27:51.341Z,2.72
2022-08-19T10:30:18.265Z,2.88
2022-08-19T10:32:47.187Z,1.77
2022-08-19T10:35:16.069Z,2.92
2022-08-19T10:37:57.615Z,3.63
2022-08-19T10:40:29.494Z,3.72
2022-08-19T10:42:57.058Z,2.72
2022-08-19T10:45:26.929Z,1.63
2022-08-19T10:47:54.921Z,2.83
2022-08-19T10:50:40.674Z,2.72
2022-08-19T10:53:12.413Z,2.10
2022-08-19T10:55:57.690Z,5.45
2022-08-19T10:58:24.651Z,4.07
2022-08-19T11:00:58.784Z,2.25
2022-08-19T11:03:26.708Z,2.55
2022-08-19T11:06:08.291Z,2.33
2022-08-19T11:08:38.460Z,2.90
2022-08-19T11:11:06.735Z,2.13
2022-08-19T11:13:38.277Z,2.10
2022-08-19T11:16:11.996Z,2.17
2022-08-19T11:18:41.232Z,3.53
2022-08-19T11:21:13.475Z,2.03
2022-08-19T11:23:40.645Z,1.80
2022-08-19T11:26:07.556Z,2.85
2022-08-19T11:28:34.244Z,3.60
2022-08-19T11:31:00.698Z,3.03
2022-08-19T11:33:27.422Z,2.03
2022-08-19T11:35:55.115Z,2.50
2022-08-19T11:38:21.559Z,2.17
2022-08-19T11:40:55.913Z,3.28
2022-08-19T11:43:22.608Z,1.77
2022-08-19T11:45:49.701Z,2.13
2022-08-19T11:48:16.193Z,2.60
2022-08-19T11:50:43.183Z,2.03
2022-08-19T11:53:10.886Z,1.77
2022-08-19T11:55:44.090Z,2.03
2022-08-19T11:58:18.624Z,2.00
2022-08-19T12:00:46.241Z,2.72
2022-08-19T12:03:15.882Z,2.70
2022-08-19T12:05:42.956Z,3.00
2022-08-19T12:08:09.754Z,1.95
2022-08-19T12:10:36.551Z,2.65
2022-08-19T12:13:03.042Z,2.42
2022-08-19T12:15:36.842Z,2.10
2022-08-19T12:18:05.099Z,2.20
2022-08-19T12:20:31.982Z,3.80
2022-08-19T12:23:02.075Z,2.15
2022-08-19T12:25:28.584Z,1.92
2022-08-19T12:27:57.453Z,1.83
2022-08-19T12:30:24.491Z,1.85
2022-08-19T12:32:52.197Z,2.00
2022-08-19T12:35:22.059Z,2.33
2022-08-19T12:37:57.043Z,2.25
2022-08-19T12:40:26.323Z,1.90
2022-08-19T12:42:53.717Z,2.65
2022-08-19T12:45:20.133Z,2.22
2022-08-19T12:47:47.764Z,2.17
2022-08-19T12:50:14.388Z,2.35
2022-08-19T12:52:43.298Z,2.10
2022-08-19T12:55:11.549Z,3.20
2022-08-19T12:57:38.578Z,2.08
2022-08-19T13:00:13.510Z,1.95
2022-08-19T13:02:46.644Z,2.28
2022-08-19T13:05:20.974Z,4.15
2022-08-19T13:07:47.979Z,4.28
2022-08-19T13:10:17.315Z,5.03
2022-08-19T13:12:45.814Z,2.58
2022-08-19T13:15:13.215Z,2.53
2022-08-19T13:17:42.216Z,3.13
2022-08-19T13:20:10.088Z,2.85
2022-08-19T13:22:37.085Z,3.20
2022-08-19T13:25:06.270Z,3.92
2022-08-19T13:27:32.910Z,4.13
2022-08-19T13:30:18.509Z,2.55
2022-08-19T13:33:03.487Z,3.67
2022-08-19T13:35:29.937Z,2.22
2022-08-19T13:37:56.474Z,3.28
2022-08-19T13:40:25.031Z,2.60
2022-08-19T13:42:53.952Z,2.42
2022-08-19T13:45:23.176Z,3.15
2022-08-19T13:47:57.003Z,2.80
2022-08-19T13:50:28.977Z,3.15
2022-08-19T13:52:56.920Z,2.35
2022-08-19T13:55:25.488Z,2.60
2022-08-19T13:57:57.961Z,3.67
2022-08-19T14:00:27.464Z,3.45
2022-08-19T14:02:56.761Z,2.30
2022-08-19T14:05:24.451Z,2.80
2022-08-19T14:07:51.420Z,2.55
2022-08-19T14:10:19.767Z,4.53
2022-08-19T14:12:47.218Z,2.45
2022-08-19T14:15:14.929Z,2.38
2022-08-19T14:17:43.707Z,3.95
2022-08-19T14:20:17.526Z,4.50
2022-08-19T14:22:46.192Z,2.90
2022-08-19T14:25:18.732Z,2.17
2022-08-19T14:27:46.003Z,3.25
2022-08-19T14:30:16.981Z,2.53
2022-08-19T14:32:46.484Z,3.88
2022-08-19T14:35:15.748Z,2.80
2022-08-19T14:37:46.185Z,3.92
2022-08-19T14:40:15.462Z,5.32
2022-08-19T14:42:42.792Z,4.00
2022-08-19T14:45:11.343Z,3.05
2022-08-19T14:47:39.852Z,4.63
2022-08-19T14:50:10.603Z,3.40
2022-08-19T14:52:48.967Z,3.20
2022-08-19T14:55:18.984Z,3.55
2022-08-19T14:57:46.209Z,3.00
2022-08-19T15:00:14.351Z,3.53
2022-08-19T15:02:42.354Z,3.28
2022-08-19T15:05:09.459Z,3.47
2022-08-19T15:07:36.132Z,4.43
2022-08-19T15:10:03.039Z,3.08
2022-08-19T15:12:29.515Z,4.25
2022-08-19T15:14:56.938Z,4.35
2022-08-19T15:17:35.333Z,4.35
2022-08-19T15:20:13.626Z,3.53
2022-08-19T15:22:40.941Z,3.67
2022-08-19T15:25:09.408Z,3.78
2022-08-19T15:27:39.771Z,3.95
2022-08-19T15:30:09.269Z,3.90
2022-08-19T15:32:36.838Z,5.28
2022-08-19T15:35:04.743Z,3.78
2022-08-19T15:37:31.279Z,4.05
2022-08-19T15:39:58.251Z,3.58
2022-08-19T15:42:30.007Z,4.07
2022-08-19T15:44:58.264Z,4.45
2022-08-19T15:47:34.451Z,3.92
2022-08-19T15:50:10.839Z,4.20
2022-08-19T15:55:27.678Z,3.58
2022-08-19T15:58:28.892Z,3.78
2022-08-19T16:01:20.865Z,4.30
2022-08-19T16:04:14.866Z,5.53
2022-08-19T16:06:44.186Z,3.72
2022-08-19T16:09:10.780Z,4.95
2022-08-19T16:11:39.679Z,5.63
2022-08-19T16:14:09.464Z,3.92
2022-08-19T16:16:37.967Z,3.80
2022-08-19T16:19:10.226Z,5.40
2022-08-19T16:21:41.691Z,3.45
2022-08-19T16:24:13.102Z,5.07
2022-08-19T16:26:40.878Z,3.97
2022-08-19T16:29:13.004Z,3.42
2022-08-19T16:31:42.191Z,4.80
2022-08-19T16:34:09.143Z,4.93
2022-08-19T16:36:35.906Z,5.97
2022-08-19T16:39:03.604Z,4.57
2022-08-19T16:41:30.101Z,4.05
2022-08-19T16:43:56.643Z,4.75
2022-08-19T16:46:27.095Z,5.40
2022-08-19T16:48:54.224Z,3.50
2022-08-19T16:51:22.652Z,5.72
2022-08-19T16:53:51.964Z,4.78
2022-08-19T16:56:19.443Z,3.67
2022-08-19T16:58:45.924Z,3.63
2022-08-19T17:01:12.390Z,3.83
2022-08-19T17:03:39.908Z,3.50
2022-08-19T17:06:21.036Z,3.88
2022-08-19T17:08:54.525Z,3.65
2022-08-19T17:11:23.166Z,6.10
2022-08-19T17:13:50.969Z,4.88
2022-08-19T17:16:19.936Z,3.40
2022-08-19T17:18:46.483Z,2.90
2022-08-19T17:21:13.270Z,4.35
2022-08-19T17:23:42.904Z,4.63
2022-08-19T17:26:17.214Z,5.50
2022-08-19T17:28:49.016Z,3.90
2022-08-19T17:31:15.854Z,4.75
2022-08-19T17:33:42.449Z,3.50
2022-08-19T17:36:18.696Z,3.45
2022-08-19T17:38:45.727Z,4.03
2022-08-19T17:41:12.159Z,4.75
2022-08-19T17:43:42.817Z,4.25
2022-08-19T17:46:11.173Z,3.63
2022-08-19T17:48:38.907Z,4.22
2022-08-19T17:51:21.889Z,4.32
2022-08-19T17:53:50.751Z,3.22
2022-08-19T17:56:17.805Z,3.72
2022-08-19T17:58:45.083Z,3.58
2022-08-19T18:01:21.277Z,3.92
2022-08-19T18:03:51.103Z,3.58
2022-08-19T18:06:17.525Z,6.45
2022-08-19T18:08:49.061Z,3.97
2022-08-19T18:11:16.805Z,4.82
2022-08-19T18:13:45.953Z,5.75
2022-08-19T18:16:13.444Z,3.80
2022-08-19T18:18:41.853Z,3.95
2022-08-19T18:21:08.515Z,4.47
2022-08-19T18:23:44.500Z,4.05
2022-08-19T18:26:12.675Z,4.93
2022-08-19T18:28:49.447Z,3.97
2022-08-19T18:31:17.166Z,3.92
2022-08-19T18:33:44.857Z,6.60
2022-08-19T18:36:11.990Z,5.25
2022-08-19T18:38:56.953Z,4.15
2022-08-19T18:41:42.036Z,4.30
2022-08-19T18:44:28.367Z,9.95
2022-08-19T18:47:13.624Z,5.80
2022-08-19T18:49:40.583Z,5.30
2022-08-19T18:52:07.471Z,4.10
2022-08-19T18:54:34.397Z,6.57
2022-08-19T18:57:01.356Z,3.83
2022-08-19T18:59:30.264Z,6.72
2022-08-19T19:01:59.128Z,4.40
2022-08-19T19:04:29.711Z,4.63
2022-08-19T19:06:56.278Z,4.32
2022-08-19T19:09:24.996Z,8.18
2022-08-19T19:11:56.386Z,4.32
2022-08-19T19:14:48.047Z,6.70
2022-08-19T19:17:15.089Z,6.45
2022-08-19T19:19:42.937Z,7.13
2022-08-19T19:22:13.882Z,8.77
2022-08-19T19:24:45.253Z,9.25
2022-08-19T19:27:14.145Z,8.10
2022-08-19T19:29:42.219Z,11.95
2022-08-19T19:32:19.688Z,9.05
2022-08-19T19:34:46.283Z,9.18
2022-08-19T19:37:12.863Z,9.40
2022-08-19T19:39:46.158Z,9.93
2022-08-19T19:42:20.570Z,8.68
2022-08-19T19:44:49.247Z,11.25
2022-08-19T19:47:17.457Z,12.32
2022-08-19T19:50:10.690Z,11.18
2022-08-19T19:52:31.774Z,10.60
2022-08-19T19:54:58.231Z,11.60
2022-08-19T19:57:26.618Z,11.88
2022-08-19T19:59:54.206Z,9.63
2022-08-19T20:02:21.912Z,12.48
2022-08-19T20:04:48.878Z,11.32
2022-08-19T20:07:15.400Z,11.82
2022-08-19T20:09:58.669Z,11.98
2022-08-19T20:12:25.585Z,11.43
2022-08-19T20:14:52.108Z,11.18
2022-08-19T20:17:20.544Z,11.45
2022-08-19T20:19:47.711Z,12.13
2022-08-19T20:22:14.220Z,11.63
2022-08-19T20:24:42.375Z,14.02
2022-08-19T20:27:09.185Z,12.90
2022-08-19T20:29:41.562Z,13.85
2022-08-19T20:32:11.080Z,13.75
2022-08-19T20:34:38.398Z,13.93
2022-08-19T20:37:05.854Z,14.50
2022-08-19T20:39:32.344Z,16.10
2022-08-19T20:41:58.900Z,14.50
2022-08-19T20:44:25.583Z,12.05
2022-08-19T20:46:54.728Z,12.60
2022-08-19T20:49:23.080Z,14.27
2022-08-19T20:51:54.838Z,13.68
2022-08-19T20:54:21.615Z,12.45
2022-08-19T20:56:48.081Z,15.00
2022-08-19T20:59:14.756Z,13.00
2022-08-19T21:01:41.187Z,12.35
2022-08-19T21:04:07.674Z,10.52
2022-08-19T21:06:34.251Z,10.48
2022-08-19T21:09:00.705Z,10.38
2022-08-19T21:11:27.177Z,11.73
2022-08-19T21:13:53.742Z,9.65
2022-08-19T21:16:20.370Z,11.85
2022-08-19T21:18:46.893Z,8.43
2022-08-19T21:21:13.351Z,8.75
2022-08-19T21:23:40.367Z,9.35
2022-08-19T21:26:08.361Z,8.88
2022-08-19T21:28:36.337Z,8.77
2022-08-19T21:31:05.510Z,10.88
2022-08-19T21:33:32.897Z,11.25
2022-08-19T21:36:00.838Z,10.82
2022-08-19T21:38:27.558Z,11.07
2022-08-19T21:40:54.519Z,10.43
2022-08-19T21:43:21.786Z,8.95
2022-08-19T21:45:48.543Z,10.70
2022-08-19T21:48:15.405Z,10.02
2022-08-19T21:50:43.544Z,11.43
2022-08-19T21:53:17.822Z,11.80
2022-08-19T21:55:44.525Z,13.98
2022-08-19T21:58:11.750Z,12.57
2022-08-19T22:00:39.658Z,13.20
2022-08-19T22:03:06.443Z,12.43
2022-08-19T22:05:33.858Z,14.13
2022-08-19T22:08:01.310Z,13.02
2022-08-19T22:10:30.610Z,19.92
2022-08-19T22:12:58.566Z,12.30
2022-08-19T22:15:29.679Z,12.13
2022-08-19T22:17:58.694Z,17.48
2022-08-19T22:20:27.916Z,14.38
2022-08-19T22:22:58.301Z,14.98
2022-08-19T22:25:45.556Z,17.02
2022-08-19T22:28:14.753Z,12.35
2022-08-19T22:30:47.145Z,13.95
2022-08-19T22:33:19.430Z,12.00
2022-08-19T22:35:47.393Z,12.40
2022-08-19T22:38:14.770Z,11.80
2022-08-19T22:40:46.026Z,15.88
2022-08-19T22:43:20.589Z,15.02
2022-08-19T22:45:48.841Z,13.32
2022-08-19T22:48:17.455Z,12.57
2022-08-19T22:51:05.830Z,12.40
2022-08-19T22:53:37.247Z,13.27
2022-08-19T22:56:06.372Z,13.85
2022-08-19T22:58:33.044Z,12.10
2022-08-19T23:00:59.758Z,12.43
2022-08-19T23:03:26.639Z,11.98
2022-08-19T23:05:53.474Z,13.77
2022-08-19T23:08:19.985Z,16.60
2022-08-19T23:10:48.548Z,13.60
2022-08-19T23:13:17.147Z,13.20
2022-08-19T23:15:46.199Z,13.27
2022-08-19T23:18:13.761Z,14.48
2022-08-19T23:20:42.300Z,12.82
2022-08-19T23:23:12.236Z,14.52
2022-08-19T23:25:40.167Z,13.02
2022-08-19T23:28:25.816Z,12.45
2022-08-19T23:30:53.279Z,16.08
2022-08-19T23:33:24.560Z,12.63
2022-08-19T23:35:54.012Z,15.40
2022-08-19T23:38:23.319Z,14.25
2022-08-19T23:40:55.858Z,11.32
2022-08-19T23:43:24.611Z,14.40
2022-08-19T23:45:52.123Z,16.10
2022-08-19T23:48:18.811Z,13.25
2022-08-19T23:50:46.060Z,14.18
2022-08-19T23:53:13.239Z,13.82
2022-08-19T23:55:43.960Z,13.35
2022-08-19T23:58:11.552Z,14.00
